CheckWX is a tool to help pilots better visualize weather data.  It is not intended as a substitute for an official pre-flight weather briefing.

13:18:55 UTC

EHEH METAR
Eindhoven Airport
Eindhoven, The Netherlands
Current

24 mins ago

EHEH 191255Z AUTO 02006KT 330V050 9999 SCT040 BKN045 BKN049 17/06 Q1031 BLU 03005KT 9999 SCT035 SCT045
Observed
Sep-19 @ 12:55 UTC
Wind
  • 020° at 6 KTS
Visibility
10,000+ meters
Flight Rules
VFR
Cloud Levels
  • Scattered at 4,000' AGL
  • Broken at 4,500' AGL
  • Broken at 4,900' AGL
  • Scattered at 3,500' AGL
Temperature
17°C / 63°F
Dewpoint
C / 43°F
Humidity
49%
Altimeter
30.44" Hg
Pressure
1030.92 hPa
Previous

54 mins ago

EHEH 191225Z AUTO 01005KT 310V080 9999 ////// 16/06 Q1031 BLU 03005KT 9999 SCT035 SCT045
Observed
Sep-19 @ 12:25 UTC
Wind
  • 010° at 5 KTS
Visibility
10,000+ meters
Flight Rules
VFR
Cloud Levels
  • Scattered at 3,500' AGL
  • Scattered at 4,500' AGL
Temperature
16°C / 61°F
Dewpoint
C / 43°F
Humidity
52%
Altimeter
30.44" Hg
Pressure
1030.92 hPa
Previous

1 hour ago

EHEH 191155Z AUTO 04007KT 300V090 9999 FEW039 BKN044 BKN390 16/06 Q1031 BLU 03005KT 9999 SCT035 SCT045
Observed
Sep-19 @ 11:55 UTC
Wind
  • 040° at 7 KTS
Visibility
10,000+ meters
Flight Rules
VFR
Cloud Levels
  • Few at 3,900' AGL
  • Broken at 4,400' AGL
  • Broken at 39,000' AGL
  • Scattered at 3,500' AGL
Temperature
16°C / 61°F
Dewpoint
C / 43°F
Humidity
52%
Altimeter
30.44" Hg
Pressure
1030.92 hPa